Time;durP1;ratioP1;P1;durP2;ratioP2;P2;SDS_P1;SDS_P2;PMS_P1;PMS_P2;Temp;Humidity;BMP_temperature;BMP_pressure;BME280_temperature;BME280_humidity;BME280_pressure;Samples;Min_cycle;Max_cycle;Signal;HPM_P1;HPM_P2
2023/01/17 00:00:04;;;;;;;6.13;2.23;;;;;;;1.65;100.00;98267.31;5243944;28;20111;-71
2023/01/17 00:02:36;;;;;;;8.43;2.80;;;;;;;1.62;100.00;98272.50;5244461;28;20033;-71
2023/01/17 00:10:48;;;;;;;10.73;2.10;;;;;;;1.56;100.00;98272.59;5243927;28;20037;-71
2023/01/17 00:13:19;;;;;;;5.20;1.67;;;;;;;1.57;100.00;98276.88;5243963;28;20030;-72
2023/01/17 00:15:51;;;;;;;10.47;3.40;;;;;;;1.57;100.00;98284.59;5243671;28;20038;-73
2023/01/17 00:18:23;;;;;;;4.45;1.73;;;;;;;1.57;100.00;98293.13;5243747;28;20152;-73
2023/01/17 00:26:34;;;;;;;3.67;1.20;;;;;;;1.47;100.00;98299.28;5244114;28;20049;-73
2023/01/17 01:35:15;;;;;;;1.65;1.25;;;;;;;0.63;100.00;98397.06;5241949;28;20041;-73
2023/01/17 01:37:47;;;;;;;1.92;1.63;;;;;;;0.59;100.00;98402.22;5242204;28;20381;-73
2023/01/17 01:40:19;;;;;;;4.32;1.70;;;;;;;0.52;100.00;98411.72;5241754;28;20037;-71
2023/01/17 01:42:53;;;;;;;2.30;1.60;;;;;;;0.46;100.00;98411.75;5242117;28;20037;-72
2023/01/17 01:45:30;;;;;;;1.90;1.73;;;;;;;0.40;100.00;98422.91;5242264;28;20456;-72
2023/01/17 01:48:31;;;;;;;3.10;2.17;;;;;;;0.36;100.00;98424.66;5242315;28;20036;-72
2023/01/17 01:51:08;;;;;;;4.25;2.47;;;;;;;0.33;100.00;98436.66;5241388;28;20132;-72
2023/01/17 01:53:44;;;;;;;4.93;2.47;;;;;;;0.27;100.00;98431.59;5241638;28;20026;-72
2023/01/17 01:56:18;;;;;;;3.15;2.50;;;;;;;0.26;100.00;98435.88;5241901;28;20034;-72
2023/01/17 01:58:51;;;;;;;3.17;2.50;;;;;;;0.30;100.00;98446.94;5241104;28;20356;-72
2023/01/17 02:01:23;;;;;;;7.93;2.65;;;;;;;0.34;100.00;98448.63;5242206;28;20136;-72
2023/01/17 02:03:54;;;;;;;4.67;2.83;;;;;;;0.41;100.00;98446.84;5241606;28;20030;-71
2023/01/17 02:06:40;;;;;;;5.80;2.80;;;;;;;0.47;100.00;98452.75;5241758;28;20036;-72
2023/01/17 02:09:14;;;;;;;3.55;2.50;;;;;;;0.52;100.00;98457.84;5241083;28;20033;-73
2023/01/17 02:11:47;;;;;;;7.10;2.72;;;;;;;0.51;100.00;98448.44;5242275;28;20523;-72
2023/01/17 02:14:20;;;;;;;4.32;2.67;;;;;;;0.53;100.00;98457.84;5242179;28;20119;-72
2023/01/17 02:17:20;;;;;;;3.35;2.50;;;;;;;0.53;100.00;98454.41;5241752;28;20401;-72
2023/01/17 02:19:54;;;;;;;3.25;2.50;;;;;;;0.58;100.00;98472.31;5240602;28;20044;-72
2023/01/17 02:22:44;;;;;;;7.38;2.90;;;;;;;0.59;100.00;98485.09;5241312;28;20054;-72
2023/01/17 02:25:53;;;;;;;4.70;2.15;;;;;;;0.65;100.00;98486.78;5241249;28;20045;-72
2023/01/17 02:28:45;;;;;;;6.75;2.40;;;;;;;0.62;100.00;98490.22;5241594;28;20057;-73
2023/01/17 02:31:25;;;;;;;4.13;1.90;;;;;;;0.47;100.00;98491.22;5241770;28;20140;-72
2023/01/17 02:34:06;;;;;;;5.97;1.77;;;;;;;0.34;100.00;98497.31;5241708;28;20037;-72
2023/01/17 02:37:07;;;;;;;8.13;1.70;;;;;;;0.16;100.00;98496.59;5241510;28;20061;-72
2023/01/17 02:39:47;;;;;;;5.90;1.70;;;;;;;-0.02;100.00;98484.78;5240032;28;20041;-73
2023/01/17 02:42:25;;;;;;;3.42;1.40;;;;;;;-0.02;100.00;98484.78;5241954;28;20057;-72
2023/01/17 02:44:56;;;;;;;2.90;1.30;;;;;;;0.02;100.00;98469.34;5241144;28;20119;-72
2023/01/17 02:47:30;;;;;;;2.67;1.30;;;;;;;-0.09;100.00;98472.84;5240962;28;20118;-73
2023/01/17 02:50:04;;;;;;;6.30;1.63;;;;;;;-0.14;100.00;98466.94;5241437;28;20552;-73
2023/01/17 02:52:59;;;;;;;3.90;1.38;;;;;;;-0.18;100.00;98475.47;5241530;28;20368;-73
2023/01/17 02:56:12;;;;;;;5.72;1.60;;;;;;;-0.24;100.00;98480.63;5240011;28;20429;-73
2023/01/17 02:59:40;;;;;;;3.80;1.30;;;;;;;-0.29;100.00;98478.13;5238863;28;20069;-73
2023/01/17 03:02:39;;;;;;;5.68;1.30;;;;;;;-0.37;100.00;98485.84;5177751;28;20035;-73
2023/01/17 03:05:24;;;;;;;7.40;1.13;;;;;;;-0.39;100.00;98494.38;5178012;28;20027;-72
2023/01/17 03:07:56;;;;;;;6.53;1.10;;;;;;;-0.47;100.00;98496.97;5230244;28;20045;-72
2023/01/17 03:10:31;;;;;;;3.90;0.80;;;;;;;-0.56;100.00;98499.59;5241142;28;20029;-72
2023/01/17 03:13:03;;;;;;;6.13;1.17;;;;;;;-0.62;100.00;98504.75;5241025;28;20042;-72
2023/01/17 03:15:34;;;;;;;2.03;0.97;;;;;;;-0.67;100.00;98512.44;5243973;28;20472;-73
2023/01/17 03:18:12;;;;;;;7.23;1.07;;;;;;;-0.73;100.00;98512.44;5244886;28;20531;-72
2023/01/17 03:20:43;;;;;;;4.55;2.28;;;;;;;-0.80;100.00;98516.75;5244245;28;20100;-73
2023/01/17 03:23:15;;;;;;;4.83;1.30;;;;;;;-0.82;100.00;98505.69;5244731;28;20124;-72
2023/01/17 03:25:46;;;;;;;4.10;1.23;;;;;;;-0.86;100.00;98509.09;5245193;28;20034;-72
2023/01/17 03:28:17;;;;;;;3.67;1.40;;;;;;;-0.83;100.00;98510.78;5244694;28;20099;-73
2023/01/17 03:30:49;;;;;;;5.00;1.77;;;;;;;-0.84;100.00;98506.53;5244541;28;20410;-72
2023/01/17 03:33:20;;;;;;;4.53;1.53;;;;;;;-0.86;100.00;98509.09;5245107;28;20457;-72
2023/01/17 03:35:53;;;;;;;8.63;2.33;;;;;;;-0.90;100.00;98517.63;5243334;28;20461;-73
2023/01/17 03:38:25;;;;;;;;;;;;;;;-0.95;100.00;98519.34;5245043;28;20030;-72
2023/01/17 03:40:56;;;;;;;3.25;1.50;;;;;;;-0.89;100.00;98513.38;5243301;28;19924;-72
2023/01/17 03:43:28;;;;;;;3.43;1.40;;;;;;;-0.94;100.00;98510.81;5244125;28;20080;-73
2023/01/17 03:46:05;;;;;;;5.43;1.50;;;;;;;-0.95;100.00;98516.78;5244270;28;20334;-71
2023/01/17 03:48:39;;;;;;;7.75;1.90;;;;;;;-0.85;100.00;98517.59;5244087;28;20033;-73
2023/01/17 03:51:11;;;;;;;8.10;1.92;;;;;;;-0.81;100.00;98520.16;5244062;28;20449;-72
2023/01/17 03:53:43;;;;;;;3.97;2.10;;;;;;;-0.82;100.00;98523.56;5243739;28;20037;-73
2023/01/17 03:56:15;;;;;;;6.28;2.17;;;;;;;-0.79;100.00;98521.00;5243957;28;20530;-73
2023/01/17 03:58:46;;;;;;;7.80;2.70;;;;;;;-0.82;100.00;98518.47;5243668;28;20026;-73
2023/01/17 04:01:17;;;;;;;8.53;3.47;;;;;;;-0.83;100.00;98521.88;5243904;28;20034;-73
2023/01/17 04:03:49;;;;;;;10.83;3.63;;;;;;;-0.85;100.00;98517.59;5243976;28;20060;-73
2023/01/17 04:06:20;;;;;;;5.27;3.13;;;;;;;-0.91;100.00;98513.38;5244198;28;20029;-73
2023/01/17 04:08:51;;;;;;;6.33;4.00;;;;;;;-0.87;100.00;98514.19;5243951;28;20036;-73
2023/01/17 04:11:23;;;;;;;7.87;5.67;;;;;;;-0.82;100.00;98522.72;5244496;28;20069;-74
2023/01/17 04:13:54;;;;;;;8.57;3.70;;;;;;;-0.81;100.00;98521.88;5243683;28;20072;-73
2023/01/17 04:16:29;;;;;;;6.70;3.50;;;;;;;-0.85;100.00;98526.16;5244045;28;20426;-73
2023/01/17 04:19:00;;;;;;;9.40;3.80;;;;;;;-0.84;100.00;98529.53;5243967;28;20029;-73
2023/01/17 04:21:32;;;;;;;10.43;3.93;;;;;;;-0.91;100.00;98518.47;5243735;28;20056;-73
2023/01/17 04:24:05;;;;;;;10.80;3.70;;;;;;;-0.92;100.00;98521.88;5244044;28;20053;-73
2023/01/17 04:26:36;;;;;;;9.10;3.40;;;;;;;-0.93;100.00;98521.03;5243788;28;20075;-73
2023/01/17 04:29:07;;;;;;;11.43;4.73;;;;;;;-0.93;100.00;98517.66;5243539;28;20026;-73
2023/01/17 04:31:39;;;;;;;10.33;3.97;;;;;;;-0.93;100.00;98520.22;5243470;28;20065;-73
2023/01/17 04:34:10;;;;;;;7.57;3.33;;;;;;;-0.98;100.00;98516.81;5243352;28;20037;-72
2023/01/17 04:36:41;;;;;;;9.73;3.57;;;;;;;-1.00;100.00;98518.50;5242246;28;20043;-71
2023/01/17 04:39:13;;;;;;;9.17;3.13;;;;;;;-1.02;100.00;98517.66;5243233;28;20079;-71
2023/01/17 04:41:44;;;;;;;5.10;3.20;;;;;;;-0.99;100.00;98517.66;5243087;28;20034;-71
2023/01/17 04:44:16;;;;;;;12.83;3.27;;;;;;;-0.97;100.00;98524.44;5243164;28;20117;-71
2023/01/17 04:46:47;;;;;;;5.60;2.77;;;;;;;-1.02;100.00;98518.50;5225317;28;20036;-72
2023/01/17 04:49:18;;;;;;;9.40;3.13;;;;;;;-1.02;100.00;98521.06;5243116;28;20038;-72
2023/01/17 04:51:50;;;;;;;8.93;3.03;;;;;;;-1.00;100.00;98523.63;5243251;28;20055;-72
2023/01/17 04:54:21;;;;;;;7.57;3.83;;;;;;;-0.99;100.00;98533.00;5242004;28;20469;-71
2023/01/17 04:56:52;;;;;;;9.63;3.90;;;;;;;-0.96;100.00;98535.56;5242896;28;20432;-71
2023/01/17 04:59:24;;;;;;;11.07;5.00;;;;;;;-0.95;100.00;98533.00;5242552;28;20120;-71
2023/01/17 05:01:55;;;;;;;13.47;5.50;;;;;;;-0.97;100.00;98528.72;5242788;28;20040;-73
2023/01/17 05:04:26;;;;;;;16.53;5.73;;;;;;;-0.92;100.00;98532.13;5242564;28;20031;-72
2023/01/17 05:06:58;;;;;;;11.60;6.60;;;;;;;-0.96;100.00;98531.28;5241481;28;20061;-72
2023/01/17 05:09:29;;;;;;;17.17;7.67;;;;;;;-0.94;100.00;98531.28;5242760;28;20037;-72
2023/01/17 05:12:00;;;;;;;17.20;8.57;;;;;;;-0.95;100.00;98532.13;5242658;28;20465;-71
2023/01/17 05:14:33;;;;;;;15.07;9.77;;;;;;;-0.96;100.00;98530.44;5242609;28;20065;-71
2023/01/17 05:17:04;;;;;;;24.20;10.80;;;;;;;-0.97;100.00;98528.72;5242902;28;20468;-72
2023/01/17 05:19:36;;;;;;;21.03;11.33;;;;;;;-0.99;100.00;98530.44;5242623;28;20079;-72
2023/01/17 05:22:13;;;;;;;20.87;10.80;;;;;;;-1.01;100.00;98538.13;5241652;28;20060;-72
2023/01/17 05:24:46;;;;;;;20.00;11.13;;;;;;;-1.03;100.00;98538.97;5242409;28;20044;-72
2023/01/17 05:27:18;;;;;;;18.77;11.23;;;;;;;-1.09;100.00;98534.72;5242913;28;20071;-72
2023/01/17 05:29:49;;;;;;;23.07;11.60;;;;;;;-1.13;100.00;98539.00;5242433;28;20192;-72
2023/01/17 05:32:20;;;;;;;24.00;12.10;;;;;;;-1.16;100.00;98539.00;5242550;28;20026;-72
2023/01/17 05:34:52;;;;;;;20.07;11.43;;;;;;;-1.22;100.00;98531.34;5240907;28;20037;-72
2023/01/17 05:37:23;;;;;;;16.73;11.20;;;;;;;-1.25;100.00;98540.72;5242100;28;20449;-72
2023/01/17 05:39:54;;;;;;;23.17;10.73;;;;;;;-1.31;100.00;98539.84;5242126;28;20033;-71
2023/01/17 05:42:26;;;;;;;18.07;10.33;;;;;;;-1.33;100.00;98546.69;5241932;28;20029;-72
2023/01/17 05:44:58;;;;;;;21.67;11.30;;;;;;;-1.34;100.00;98552.63;5241694;28;20030;-72
2023/01/17 05:47:29;;;;;;;19.53;11.57;;;;;;;-1.38;100.00;98563.72;5241906;28;20029;-72
2023/01/17 05:50:00;;;;;;;18.07;11.57;;;;;;;-1.36;100.00;98561.19;5241889;28;20071;-71
2023/01/17 05:52:31;;;;;;;19.50;11.23;;;;;;;-1.44;100.00;98563.72;5240564;28;20040;-72
2023/01/17 05:55:05;;;;;;;19.53;10.60;;;;;;;-1.44;100.00;98562.88;5241867;28;20039;-72
2023/01/17 05:57:37;;;;;;;17.40;9.70;;;;;;;-1.43;100.00;98562.00;5224537;28;20079;-71
2023/01/17 06:00:09;;;;;;;18.13;10.70;;;;;;;-1.38;100.00;98570.56;5242171;28;20033;-72
2023/01/17 06:02:41;;;;;;;25.45;12.70;;;;;;;-1.39;100.00;98572.25;5241865;28;20385;-71
2023/01/17 06:05:14;;;;;;;22.63;13.83;;;;;;;-1.35;100.00;98570.56;5242021;28;20037;-72
2023/01/17 06:07:46;;;;;;;23.38;13.70;;;;;;;-1.39;100.00;98566.28;5241698;28;20067;-71
2023/01/17 06:10:19;;;;;;;21.88;13.73;;;;;;;-1.41;100.00;98560.34;5241680;28;20034;-72
2023/01/17 06:13:11;;;;;;;28.60;15.10;;;;;;;-1.42;100.00;98559.47;5241927;28;20025;-71
2023/01/17 06:15:42;;;;;;;26.48;15.88;;;;;;;-1.45;100.00;98556.91;5242281;28;20037;-71
2023/01/17 06:18:15;;;;;;;26.20;16.63;;;;;;;-1.47;100.00;98568.84;5242174;28;20176;-71
2023/01/17 06:20:52;;;;;;;24.45;16.27;;;;;;;-1.49;100.00;98571.41;5242166;28;20029;-72
2023/01/17 06:23:23;;;;;;;27.25;16.20;;;;;;;-1.51;100.00;98573.09;5241904;28;20033;-72
2023/01/17 06:25:55;;;;;;;31.23;16.80;;;;;;;-1.53;100.00;98582.47;5241960;28;20057;-72
2023/01/17 06:28:26;;;;;;;21.23;15.60;;;;;;;-1.57;100.00;98573.09;5241474;28;20033;-72
2023/01/17 06:30:58;;;;;;;30.03;16.13;;;;;;;-1.55;100.00;98581.59;5241438;28;20037;-72
2023/01/17 06:33:30;;;;;;;27.83;15.63;;;;;;;-1.53;100.00;98579.94;5241635;28;20404;-72
2023/01/17 06:36:01;;;;;;;28.57;17.13;;;;;;;-1.56;100.00;98574.81;5241346;28;20088;-72
2023/01/17 06:38:33;;;;;;;24.20;15.97;;;;;;;-1.62;100.00;98563.75;5241411;28;20063;-71
2023/01/17 06:41:04;;;;;;;27.20;15.75;;;;;;;-1.72;100.00;98576.50;5239970;28;20336;-71
2023/01/17 06:43:36;;;;;;;25.30;15.97;;;;;;;-1.71;100.00;98577.34;5241290;28;20028;-72
2023/01/17 06:46:07;;;;;;;27.97;15.50;;;;;;;-1.72;100.00;98585.88;5241232;28;20068;-72
2023/01/17 06:48:39;;;;;;;22.50;15.57;;;;;;;-1.73;100.00;98585.00;5241124;28;20061;-72
2023/01/17 06:51:10;;;;;;;26.83;16.87;;;;;;;-1.77;100.00;98585.88;5245221;28;20033;-72
2023/01/17 06:53:42;;;;;;;25.00;17.53;;;;;;;-1.80;100.00;98587.53;5245243;28;20038;-72
2023/01/17 06:56:13;;;;;;;29.33;15.73;;;;;;;-1.84;100.00;98584.97;5245008;28;20101;-72
2023/01/17 06:58:49;;;;;;;31.73;16.77;;;;;;;-1.89;100.00;98586.69;5245118;28;20100;-72
2023/01/17 07:01:20;;;;;;;28.52;17.08;;;;;;;-1.85;100.00;98583.28;5244814;28;20034;-72
2023/01/17 07:03:52;;;;;;;26.77;16.43;;;;;;;-1.92;100.00;98584.13;5245012;28;20495;-72
2023/01/17 07:06:27;;;;;;;26.47;14.70;;;;;;;-1.95;100.00;98576.44;5245209;28;20029;-72
2023/01/17 07:08:59;;;;;;;22.10;15.70;;;;;;;-1.98;100.00;98584.13;5244909;28;20500;-72
2023/01/17 07:11:31;;;;;;;22.15;14.48;;;;;;;-1.97;100.00;98584.97;5244857;28;20366;-72
2023/01/17 07:14:02;;;;;;;28.77;15.83;;;;;;;-1.99;100.00;98586.69;5244785;28;20099;-72
2023/01/17 07:16:34;;;;;;;27.40;16.03;;;;;;;-1.98;100.00;98586.69;5243883;28;20091;-72
2023/01/17 07:19:05;;;;;;;33.13;17.13;;;;;;;-2.00;100.00;98583.25;5245014;28;20060;-72
2023/01/17 07:21:36;;;;;;;23.47;15.23;;;;;;;-2.04;100.00;98587.50;5244799;28;20049;-72
2023/01/17 07:24:08;;;;;;;26.13;15.30;;;;;;;-1.98;100.00;98593.47;5244520;28;20022;-72
2023/01/17 07:26:39;;;;;;;27.60;16.97;;;;;;;-1.99;100.00;98589.22;5244742;28;20477;-72
2023/01/17 07:29:11;;;;;;;30.87;17.90;;;;;;;-2.04;100.00;98592.59;5244254;28;20029;-72
2023/01/17 07:31:43;;;;;;;32.83;16.57;;;;;;;-2.02;100.00;98595.16;5244407;28;20489;-72
2023/01/17 07:34:14;;;;;;;29.10;17.67;;;;;;;-2.03;100.00;98598.56;5244226;28;20033;-72
2023/01/17 07:36:48;;;;;;;25.97;17.47;;;;;;;-2.06;100.00;98598.53;5244167;28;20283;-72
2023/01/17 07:39:20;;;;;;;27.52;17.77;;;;;;;-2.09;100.00;98604.50;5244187;28;20116;-72
2023/01/17 07:41:51;;;;;;;27.40;17.73;;;;;;;-2.09;100.00;98604.50;5244793;28;20109;-72
2023/01/17 07:44:23;;;;;;;28.77;17.70;;;;;;;-2.16;100.00;98607.88;5243941;28;20033;-72
2023/01/17 07:46:54;;;;;;;30.97;18.10;;;;;;;-2.15;100.00;98603.66;5244134;28;20037;-72
2023/01/17 07:49:25;;;;;;;27.37;16.63;;;;;;;-2.12;100.00;98603.66;5243532;28;20115;-72
2023/01/17 07:51:58;;;;;;;34.60;18.00;;;;;;;-2.14;100.00;98610.44;5244402;28;20025;-72
2023/01/17 07:54:29;;;;;;;25.25;17.08;;;;;;;-2.11;100.00;98607.91;5243793;28;20025;-72
2023/01/17 07:57:01;;;;;;;30.73;19.20;;;;;;;-2.08;100.00;98608.75;5244005;28;20095;-72
2023/01/17 07:59:33;;;;;;;30.95;19.10;;;;;;;-2.10;100.00;98607.91;5243091;28;20036;-72
2023/01/17 08:02:04;;;;;;;36.47;19.23;;;;;;;-2.06;100.00;98608.75;5243890;28;20112;-72
2023/01/17 08:04:36;;;;;;;35.07;20.17;;;;;;;-1.99;100.00;98609.66;5243805;28;20029;-72
2023/01/17 08:07:07;;;;;;;37.53;18.90;;;;;;;-2.02;100.00;98600.28;5243837;28;20036;-72
2023/01/17 08:09:40;;;;;;;36.80;19.40;;;;;;;-1.97;100.00;98602.84;5244198;28;20029;-72
2023/01/17 08:12:12;;;;;;;;;;;;;;;-1.97;100.00;98613.06;5243756;28;20109;-72
2023/01/17 08:14:44;;;;;;;32.08;19.55;;;;;;;-1.93;100.00;98607.97;5243646;28;19913;-72
2023/01/17 08:17:17;;;;;;;34.90;20.23;;;;;;;-1.90;100.00;98614.75;5243230;28;20032;-72
2023/01/17 08:19:50;;;;;;;32.63;20.95;;;;;;;-1.84;100.00;98610.50;5243920;28;20442;-72
2023/01/17 08:22:22;;;;;;;41.58;22.50;;;;;;;-1.84;100.00;98605.41;5243118;28;20377;-72
2023/01/17 08:24:53;;;;;;;39.63;21.73;;;;;;;-1.69;100.00;98603.72;5243186;28;20047;-72
2023/01/17 08:27:25;;;;;;;39.17;22.37;;;;;;;-1.69;100.00;98608.84;5243385;28;20025;-72
2023/01/17 08:29:56;;;;;;;39.03;21.57;;;;;;;-1.68;100.00;98608.84;5243048;28;20034;-72
2023/01/17 08:32:27;;;;;;;36.90;21.63;;;;;;;-1.64;100.00;98612.28;5243081;28;20498;-72
2023/01/17 08:34:59;;;;;;;34.90;22.90;;;;;;;-1.60;100.00;98620.78;5242654;28;20072;-71
2023/01/17 08:37:31;;;;;;;34.70;21.20;;;;;;;-1.61;100.00;98621.63;5243263;28;20025;-71
2023/01/17 08:40:04;;;;;;;31.13;20.80;;;;;;;-1.56;100.00;98625.91;5241625;28;20477;-71
2023/01/17 08:42:38;;;;;;;32.05;21.42;;;;;;;-1.56;100.00;98628.47;5242881;28;20049;-71
2023/01/17 08:45:11;;;;;;;32.25;21.13;;;;;;;-1.53;100.00;98631.03;5242845;28;20045;-71
2023/01/17 08:47:42;;;;;;;33.78;20.42;;;;;;;-1.47;100.00;98631.00;5242814;28;20401;-71
2023/01/17 08:50:14;;;;;;;29.80;19.97;;;;;;;-1.43;100.00;98625.91;5242507;28;20030;-71
2023/01/17 08:52:49;;;;;;;37.43;20.93;;;;;;;-1.38;100.00;98630.19;5242759;28;20088;-71
2023/01/17 08:55:21;;;;;;;34.00;20.48;;;;;;;-1.32;100.00;98625.06;5242672;28;20034;-71
2023/01/17 08:57:52;;;;;;;30.90;21.07;;;;;;;-1.14;100.00;98631.91;5241362;28;20045;-71
2023/01/17 09:00:25;;;;;;;31.67;20.30;;;;;;;-1.20;100.00;98621.66;5243034;28;20065;-71
2023/01/17 09:02:58;;;;;;;38.90;21.73;;;;;;;-1.13;100.00;98623.38;5241209;28;20132;-71
2023/01/17 09:05:29;;;;;;;32.80;21.30;;;;;;;-1.09;100.00;98619.09;5242031;28;20061;-72
2023/01/17 09:08:00;;;;;;;34.13;20.53;;;;;;;-0.96;100.00;98625.06;5242569;28;20413;-72
2023/01/17 09:10:32;;;;;;;32.87;19.97;;;;;;;-0.88;100.00;98627.63;5242486;28;20546;-71
2023/01/17 09:13:06;;;;;;;33.63;19.60;;;;;;;-0.92;100.00;98627.63;5239877;28;20060;-71
2023/01/17 09:15:38;;;;;;;32.22;20.00;;;;;;;-0.79;100.00;98636.13;5241980;28;20380;-71
2023/01/17 09:18:09;;;;;;;33.93;20.33;;;;;;;-0.54;100.00;98630.09;5242157;28;20120;-71
2023/01/17 09:20:40;;;;;;;38.67;20.13;;;;;;;-0.39;100.00;98635.16;5241244;28;20033;-71
2023/01/17 09:23:12;;;;;;;26.13;19.03;;;;;;;0.03;100.00;98635.00;5242341;28;20064;-71
2023/01/17 09:25:43;;;;;;;21.63;16.30;;;;;;;0.06;100.00;98629.88;5242284;28;20041;-71
2023/01/17 09:28:15;;;;;;;25.27;16.53;;;;;;;0.46;100.00;98634.75;5241966;28;20116;-72
2023/01/17 09:30:46;;;;;;;21.30;15.27;;;;;;;0.47;100.00;98639.03;5241881;28;20033;-71
2023/01/17 09:33:19;;;;;;;22.77;13.87;;;;;;;0.53;100.00;98639.84;5241909;28;20025;-71
2023/01/17 09:35:50;;;;;;;19.60;12.73;;;;;;;0.63;100.00;98637.19;5241682;28;20037;-71
2023/01/17 09:38:22;;;;;;;15.53;11.43;;;;;;;0.62;100.00;98636.34;5241782;28;20385;-72
2023/01/17 09:40:54;;;;;;;21.08;13.60;;;;;;;1.30;100.00;98640.06;5241740;28;20034;-70
2023/01/17 09:43:37;;;;;;;14.77;11.27;;;;;;;1.41;100.00;98636.53;5242001;28;20477;-71
2023/01/17 09:46:21;;;;;;;16.48;11.85;;;;;;;1.82;100.00;98653.22;5241783;28;20037;-72
2023/01/17 09:49:07;;;;;;;16.75;10.18;;;;;;;1.97;100.00;98652.16;5241927;28;20416;-72
2023/01/17 09:51:39;;;;;;;13.40;9.57;;;;;;;2.21;100.00;98655.31;5242255;28;20029;-71
2023/01/17 09:54:21;;;;;;;15.87;9.07;;;;;;;2.67;100.00;98652.09;5224086;28;20041;-72
2023/01/17 09:57:31;;;;;;;13.68;8.50;;;;;;;3.13;100.00;98650.50;5241665;28;20018;-72
2023/01/17 10:00:34;;;;;;;12.65;8.82;;;;;;;3.03;100.00;98661.81;5240473;28;20046;-72
2023/01/17 10:03:23;;;;;;;13.45;8.15;;;;;;;2.79;100.00;98669.06;5241302;28;20499;-72
2023/01/17 10:06:21;;;;;;;12.13;7.82;;;;;;;3.03;97.60;98667.81;5241543;28;20086;-72
2023/01/17 10:09:12;;;;;;;14.02;8.02;;;;;;;3.23;98.35;98661.47;5241939;28;20063;-72
2023/01/17 10:12:04;;;;;;;12.23;7.22;;;;;;;3.20;93.01;98666.69;5241833;28;20044;-72
2023/01/17 10:14:45;;;;;;;10.18;7.20;;;;;;;2.94;92.59;98667.97;5241929;28;20500;-72
2023/01/17 10:17:42;;;;;;;14.38;7.25;;;;;;;3.07;92.56;98673.75;5241591;28;20034;-72
2023/01/17 10:20:44;;;;;;;11.85;7.38;;;;;;;3.27;94.01;98670.88;5241576;28;20038;-72
2023/01/17 10:23:31;;;;;;;12.93;7.50;;;;;;;3.49;90.63;98673.88;5242092;28;20049;-72
2023/01/17 10:26:16;;;;;;;11.30;7.15;;;;;;;3.80;92.41;98666.47;5245702;28;20041;-73
2023/01/17 10:28:51;;;;;;;11.77;7.55;;;;;;;3.91;89.65;98668.84;5245795;28;20033;-73
2023/01/17 10:31:25;;;;;;;12.02;6.97;;;;;;;4.40;89.84;98669.53;5245421;28;20029;-72
2023/01/17 10:34:11;;;;;;;11.38;6.80;;;;;;;4.55;91.66;98669.19;5245086;28;20106;-72
2023/01/17 10:36:50;;;;;;;13.55;6.93;;;;;;;4.07;88.11;98661.59;5245474;28;20064;-72
2023/01/17 10:39:24;;;;;;;11.57;6.85;;;;;;;3.94;87.39;98661.00;5245466;28;20514;-73
2023/01/17 10:42:05;;;;;;;11.30;6.57;;;;;;;4.09;87.51;98667.59;5244823;28;20172;-72
2023/01/17 10:45:06;;;;;;;13.45;6.93;;;;;;;3.80;87.88;98668.16;5245779;28;20033;-72
2023/01/17 10:47:38;;;;;;;11.40;7.35;;;;;;;4.04;91.99;98671.16;5245193;28;20072;-72
2023/01/17 10:50:12;;;;;;;12.93;7.73;;;;;;;4.43;92.55;98681.50;5244998;28;20109;-72
2023/01/17 10:52:50;;;;;;;11.63;7.70;;;;;;;4.72;89.36;98678.31;5244854;28;20065;-73
2023/01/17 10:55:52;;;;;;;13.32;7.13;;;;;;;4.75;87.27;98683.38;5244811;28;20116;-72
2023/01/17 10:58:24;;;;;;;9.13;6.15;;;;;;;5.31;84.98;98677.72;5244042;28;20099;-72
2023/01/17 11:01:14;;;;;;;11.95;6.55;;;;;;;6.24;83.90;98673.53;5244971;28;20038;-72
2023/01/17 11:03:51;;;;;;;10.98;6.90;;;;;;;5.77;78.34;98678.28;5244213;28;20033;-72
2023/01/17 11:06:24;;;;;;;11.73;6.70;;;;;;;5.39;76.53;98677.53;5245281;28;20424;-72
2023/01/17 11:08:57;;;;;;;11.43;6.53;;;;;;;5.04;79.05;98674.97;5244908;28;20040;-72
2023/01/17 11:11:32;;;;;;;13.35;6.90;;;;;;;5.10;83.17;98679.09;5244894;28;20381;-72
2023/01/17 11:14:11;;;;;;;9.60;6.85;;;;;;;6.19;81.27;98671.06;5244784;28;20026;-72
2023/01/17 11:16:42;;;;;;;9.07;6.55;;;;;;;6.81;75.85;98666.66;5244595;28;20112;-72
2023/01/17 11:19:24;;;;;;;11.67;7.23;;;;;;;7.52;74.17;98663.47;5244488;28;20125;-72
2023/01/17 11:22:00;;;;;;;10.90;6.40;;;;;;;9.09;69.83;98657.63;5244594;28;20095;-72
2023/01/17 11:24:39;;;;;;;14.32;5.65;;;;;;;8.75;64.06;98651.19;5245298;28;20025;-72
2023/01/17 11:27:23;;;;;;;8.80;5.05;;;;;;;10.29;66.99;98662.88;5244583;28;20091;-72
2023/01/17 11:30:16;;;;;;;13.45;5.30;;;;;;;9.96;58.88;98657.44;5244681;28;20021;-73
2023/01/17 11:32:51;;;;;;;;;;;;;;;10.31;61.14;98660.22;5245481;28;20028;-73
2023/01/17 11:35:32;;;;;;;11.02;4.50;;;;;;;9.37;56.99;98657.34;5244100;28;19960;-72
2023/01/17 11:38:12;;;;;;;8.77;5.30;;;;;;;9.21;56.42;98646.75;5244650;28;20337;-72
2023/01/17 11:40:45;;;;;;;11.82;5.75;;;;;;;8.38;59.37;98650.84;5244833;28;20022;-72
2023/01/17 11:43:23;;;;;;;9.93;5.55;;;;;;;8.02;58.74;98648.72;5243164;28;20030;-72
2023/01/17 11:46:04;;;;;;;7.00;4.30;;;;;;;9.13;60.51;98644.47;5244508;28;20423;-72
2023/01/17 11:48:38;;;;;;;9.73;4.38;;;;;;;8.89;53.01;98641.09;5244279;28;20437;-72
2023/01/17 11:51:19;;;;;;;10.32;5.03;;;;;;;8.52;56.62;98642.56;5243883;28;20120;-72
2023/01/17 11:53:53;;;;;;;6.57;4.43;;;;;;;8.02;56.75;98646.13;5244040;28;20025;-72
2023/01/17 11:56:36;;;;;;;10.93;5.07;;;;;;;8.01;57.55;98641.81;5243711;28;20502;-72
2023/01/17 11:59:30;;;;;;;12.15;4.25;;;;;;;8.27;56.30;98645.19;5243787;28;20021;-72
2023/01/17 12:02:32;;;;;;;4.88;3.97;;;;;;;8.32;56.33;98630.31;5244457;28;20453;-72
2023/01/17 12:05:31;;;;;;;9.13;4.97;;;;;;;8.70;58.69;98630.59;5243342;28;20037;-72
2023/01/17 12:08:18;;;;;;;7.05;4.90;;;;;;;9.73;53.92;98641.06;5243033;28;20044;-72
2023/01/17 12:10:59;;;;;;;7.78;3.80;;;;;;;11.24;53.67;98625.41;5243827;28;20521;-74
2023/01/17 12:14:01;;;;;;;7.03;4.03;;;;;;;12.51;52.13;98630.94;5243561;28;20417;-72
2023/01/17 12:16:47;;;;;;;7.33;4.57;;;;;;;12.22;48.20;98637.75;5243515;28;20037;-72
2023/01/17 12:19:37;;;;;;;5.60;3.67;;;;;;;10.94;47.14;98637.25;5243536;28;20021;-72
2023/01/17 12:22:32;;;;;;;5.38;3.60;;;;;;;10.94;47.20;98637.25;5244096;28;20057;-72
2023/01/17 12:25:22;;;;;;;7.18;3.85;;;;;;;11.51;47.00;98636.19;5243701;28;20037;-72
2023/01/17 12:28:45;;;;;;;5.45;3.47;;;;;;;11.35;42.95;98630.06;5243290;28;20030;-72
2023/01/17 12:31:33;;;;;;;6.00;3.25;;;;;;;10.76;42.06;98636.38;5241835;28;20040;-72
2023/01/17 12:34:27;;;;;;;6.00;3.00;;;;;;;11.88;44.46;98628.22;5243172;28;20146;-72
2023/01/17 12:37:03;;;;;;;;;;;;;;;12.99;43.72;98625.63;5244158;28;20036;-72
2023/01/17 12:39:39;;;;;;;6.63;3.10;;;;;;;12.14;39.60;98632.94;5243262;28;20015;-72
2023/01/17 12:42:17;;;;;;;7.10;3.25;;;;;;;11.86;39.02;98625.69;5243539;28;20511;-72
2023/01/17 12:45:14;;;;;;;4.55;3.08;;;;;;;12.08;43.41;98620.22;5242985;28;20465;-72
2023/01/17 12:47:50;;;;;;;5.78;3.15;;;;;;;12.64;39.52;98618.03;5242146;28;20075;-72
2023/01/17 12:50:43;;;;;;;5.97;2.60;;;;;;;13.65;38.81;98618.34;5242972;28;20063;-72
2023/01/17 12:53:22;;;;;;;;;;;;;;;14.22;36.81;98622.75;5243033;28;20025;-72
2023/01/17 12:56:07;;;;;;;7.15;3.45;;;;;;;13.15;38.70;98617.75;5243457;28;19924;-72
2023/01/17 12:58:44;;;;;;;6.75;2.60;;;;;;;14.04;38.13;98616.88;5243226;28;20475;-72
2023/01/17 13:01:41;;;;;;;5.30;2.70;;;;;;;14.70;37.26;98622.34;5243142;28;20029;-71
2023/01/17 13:04:28;;;;;;;3.60;2.22;;;;;;;13.91;34.24;98624.63;5243097;28;20036;-72
2023/01/17 13:07:11;;;;;;;7.85;3.00;;;;;;;14.72;37.27;98623.94;5242788;28;20025;-72
2023/01/17 13:09:52;;;;;;;9.70;3.40;;;;;;;14.91;34.99;98607.03;5242478;28;20090;-72
2023/01/17 13:12:27;;;;;;;3.70;2.42;;;;;;;13.48;31.88;98617.59;5242883;28;20061;-72
2023/01/17 13:15:01;;;;;;;4.30;2.53;;;;;;;12.35;33.50;98609.22;5242240;28;20022;-72
2023/01/17 13:17:50;;;;;;;5.57;2.63;;;;;;;13.24;36.86;98608.53;5242382;28;20042;-72
2023/01/17 13:20:31;;;;;;;6.25;3.08;;;;;;;12.47;34.86;98612.91;5242509;28;20038;-71
2023/01/17 13:23:22;;;;;;;5.78;2.97;;;;;;;10.81;38.62;98604.91;5242056;28;20088;-71
2023/01/17 13:25:58;;;;;;;8.02;2.95;;;;;;;8.72;41.84;98605.41;5242219;28;20091;-71